KNPA/NPA METAR and TAF weather

Enter ICAO airport designator
Station Type Date Time Source
KNPA METAR 2019/11/14 03:56 UTC NOAA

KNPA 140356Z AUTO 02008KT 10SM CLR 08/03 A3023 RMK AO2 SLP238 T00830028 $


Station Type Date Time Source
KNPA Decoded METAR 2019/11/14 03:56 UTC NOAA

Pensacola, Naval Air Station, FL, United States (KNPA) 30-21-22N 087-19-24W 10M
Nov 13, 2019 - 10:56 PM EST / 2019.11.14 0356 UTC
Wind: from the NNE (020 degrees) at 9 MPH (8 KT):0
Visibility: 10 mile(s):0
Sky conditions: clear
Temperature: 46.9 F (8.3 C)
Dew Point: 37.0 F (2.8 C)
Relative Humidity: 68%
Pressure (altimeter): 30.23 in. Hg (1023 hPa)
ob: KNPA 140356Z AUTO 02008KT 10SM CLR 08/03 A3023 RMK AO2 SLP238 T00830028
cycle: 4

Station Type Date Time Source
KNPA TAF 2019/11/13 23:58 UTC NOAA

TAF KNPA 1323/1423 05005KT 9999 FEW020 BKN250 QNH3017INS
FM140900 03007KT 9999 FEW025 BKN120 BKN250 621309 622202 QNH3014INS
FM141300 03009KT 9999 SCT025 BKN040 BKN120 OVC250 621309 622202 QNH3016INS
FM142100 36011KT 9999 VCSH BKN025 BKN040 OVC120 621309 622202 QNH3011INS AUTOMATED SENSOR METWATCH 1403 TIL 1412 T06/1411Z T13/1420Z FN20053

Example: see airport list